Terminal Aerodrome Forecast
Issued by NWS

Home | Current Version | Previous Version | Text Only | Print | Product List | Glossary On
Versions: 1 2 3 4 5 6 7 8 9 10 11 12 13 14
707
FTUS43 KTOP 231122
TAFMHK
TAF
KMHK 231122Z 2312/2412 26006KT P6SM FEW250 WS010/28045KT
     FM231600 34018G28KT P6SM FEW200
     FM240200 31010KT P6SM FEW200
     FM240600 31010KT P6SM FEW200 WS010/32040KT=

USA.gov is the U.S. government's official web portal to all federal, state and local government web resources and services.